sensor_id;sensor_type;location;lat;lon;timestamp;P1;P2;P0
76101;PMS7003;64830;46.910;6.354;2023-02-26T00:00:37;4.50;2.25;2.25
76101;PMS7003;64830;46.910;6.354;2023-02-26T00:03:03;5.00;5.00;4.00
76101;PMS7003;64830;46.910;6.354;2023-02-26T00:05:28;4.00;4.00;4.00
76101;PMS7003;64830;46.910;6.354;2023-02-26T00:07:54;5.00;5.00;2.25
76101;PMS7003;64830;46.910;6.354;2023-02-26T00:10:19;4.75;4.00;3.50
76101;PMS7003;64830;46.910;6.354;2023-02-26T00:12:44;6.75;6.75;5.25
76101;PMS7003;64830;46.910;6.354;2023-02-26T00:15:11;7.00;5.00;4.00
76101;PMS7003;64830;46.910;6.354;2023-02-26T00:20:24;8.00;6.00;4.00
76101;PMS7003;64830;46.910;6.354;2023-02-26T00:22:50;9.25;6.75;5.75
76101;PMS7003;64830;46.910;6.354;2023-02-26T00:25:16;6.75;4.75;4.00
76101;PMS7003;64830;46.910;6.354;2023-02-26T00:27:41;11.50;6.50;4.25
76101;PMS7003;64830;46.910;6.354;2023-02-26T00:30:08;8.00;4.00;2.25
76101;PMS7003;64830;46.910;6.354;2023-02-26T00:32:35;6.75;4.50;4.00
76101;PMS7003;64830;46.910;6.354;2023-02-26T00:35:01;4.75;4.75;4.75
76101;PMS7003;64830;46.910;6.354;2023-02-26T00:42:49;3.50;1.00;0.00
76101;PMS7003;64830;46.910;6.354;2023-02-26T00:45:16;2.25;2.25;1.00
76101;PMS7003;64830;46.910;6.354;2023-02-26T00:47:50;3.00;2.25;1.50
76101;PMS7003;64830;46.910;6.354;2023-02-26T00:50:37;5.50;5.50;4.00
76101;PMS7003;64830;46.910;6.354;2023-02-26T00:53:13;6.25;6.25;4.25
76101;PMS7003;64830;46.910;6.354;2023-02-26T00:55:45;5.75;3.00;3.00
76101;PMS7003;64830;46.910;6.354;2023-02-26T00:58:10;4.75;4.75;4.00
76101;PMS7003;64830;46.910;6.354;2023-02-26T01:00:35;1.50;0.75;0.00
76101;PMS7003;64830;46.910;6.354;2023-02-26T01:03:01;6.75;6.50;5.00
76101;PMS7003;64830;46.910;6.354;2023-02-26T01:05:27;4.50;4.00;2.75
76101;PMS7003;64830;46.910;6.354;2023-02-26T01:10:37;4.50;4.00;2.25
76101;PMS7003;64830;46.910;6.354;2023-02-26T01:13:02;5.25;5.25;5.00
76101;PMS7003;64830;46.910;6.354;2023-02-26T01:15:28;2.75;2.75;2.00
76101;PMS7003;64830;46.910;6.354;2023-02-26T01:20:46;7.25;4.00;2.25
76101;PMS7003;64830;46.910;6.354;2023-02-26T01:23:22;3.75;3.75;2.25
76101;PMS7003;64830;46.910;6.354;2023-02-26T01:25:54;2.50;1.00;1.00
76101;PMS7003;64830;46.910;6.354;2023-02-26T01:28:23;6.75;6.75;5.25
76101;PMS7003;64830;46.910;6.354;2023-02-26T01:30:50;4.25;4.25;4.00
76101;PMS7003;64830;46.910;6.354;2023-02-26T01:33:21;4.00;3.75;3.00
76101;PMS7003;64830;46.910;6.354;2023-02-26T01:35:57;5.00;4.50;3.25
76101;PMS7003;64830;46.910;6.354;2023-02-26T01:48:48;7.75;6.75;4.50
76101;PMS7003;64830;46.910;6.354;2023-02-26T01:51:16;7.50;6.00;4.75
76101;PMS7003;64830;46.910;6.354;2023-02-26T01:53:43;7.75;6.00;4.00
76101;PMS7003;64830;46.910;6.354;2023-02-26T01:56:12;4.00;4.00;4.00
76101;PMS7003;64830;46.910;6.354;2023-02-26T01:58:41;7.50;5.50;5.25
76101;PMS7003;64830;46.910;6.354;2023-02-26T02:01:08;4.00;3.00;2.75
76101;PMS7003;64830;46.910;6.354;2023-02-26T02:03:34;7.00;6.00;4.00
76101;PMS7003;64830;46.910;6.354;2023-02-26T02:06:04;3.25;3.25;3.25
76101;PMS7003;64830;46.910;6.354;2023-02-26T02:08:32;3.75;3.75;3.75
76101;PMS7003;64830;46.910;6.354;2023-02-26T02:10:59;6.00;4.25;4.00
76101;PMS7003;64830;46.910;6.354;2023-02-26T02:25:37;7.00;5.50;4.50
76101;PMS7003;64830;46.910;6.354;2023-02-26T02:33:15;3.25;1.25;1.25
76101;PMS7003;64830;46.910;6.354;2023-02-26T02:35:45;9.25;6.00;3.75
76101;PMS7003;64830;46.910;6.354;2023-02-26T02:38:25;4.00;3.00;3.00
76101;PMS7003;64830;46.910;6.354;2023-02-26T02:40:58;6.50;6.50;5.00
76101;PMS7003;64830;46.910;6.354;2023-02-26T02:43:31;4.00;4.00;3.25
76101;PMS7003;64830;46.910;6.354;2023-02-26T02:46:02;6.75;6.25;4.00
76101;PMS7003;64830;46.910;6.354;2023-02-26T02:48:46;4.00;3.50;3.00
76101;PMS7003;64830;46.910;6.354;2023-02-26T02:54:15;10.00;7.00;5.50
76101;PMS7003;64830;46.910;6.354;2023-02-26T02:56:51;5.50;5.50;4.00
76101;PMS7003;64830;46.910;6.354;2023-02-26T03:01:47;2.50;2.50;1.00
76101;PMS7003;64830;46.910;6.354;2023-02-26T03:04:17;3.50;3.00;3.00
76101;PMS7003;64830;46.910;6.354;2023-02-26T03:06:43;6.00;6.00;4.00
76101;PMS7003;64830;46.910;6.354;2023-02-26T03:09:11;4.00;4.00;3.50
76101;PMS7003;64830;46.910;6.354;2023-02-26T03:11:37;3.50;3.25;3.00
76101;PMS7003;64830;46.910;6.354;2023-02-26T03:14:03;7.75;5.50;4.25
76101;PMS7003;64830;46.910;6.354;2023-02-26T03:22:09;9.50;5.50;4.00
76101;PMS7003;64830;46.910;6.354;2023-02-26T03:27:30;6.00;4.00;3.75
76101;PMS7003;64830;46.910;6.354;2023-02-26T03:30:44;6.75;6.00;3.75
76101;PMS7003;64830;46.910;6.354;2023-02-26T03:38:33;5.50;5.50;4.00
76101;PMS7003;64830;46.910;6.354;2023-02-26T03:41:19;7.25;5.50;4.75
76101;PMS7003;64830;46.910;6.354;2023-02-26T03:44:12;6.50;5.00;4.00
76101;PMS7003;64830;46.910;6.354;2023-02-26T03:47:03;7.00;7.00;4.50
76101;PMS7003;64830;46.910;6.354;2023-02-26T03:49:33;1.50;1.50;1.00
76101;PMS7003;64830;46.910;6.354;2023-02-26T03:52:04;4.00;4.00;3.25
76101;PMS7003;64830;46.910;6.354;2023-02-26T03:54:32;1.00;1.00;1.00
76101;PMS7003;64830;46.910;6.354;2023-02-26T03:57:01;3.75;3.75;3.00
76101;PMS7003;64830;46.910;6.354;2023-02-26T03:59:27;3.25;3.25;3.00
76101;PMS7003;64830;46.910;6.354;2023-02-26T04:01:58;6.75;4.00;3.25
76101;PMS7003;64830;46.910;6.354;2023-02-26T04:04:31;4.50;3.25;3.00
76101;PMS7003;64830;46.910;6.354;2023-02-26T04:07:01;6.00;4.00;3.00
76101;PMS7003;64830;46.910;6.354;2023-02-26T04:09:27;5.50;5.50;3.00
76101;PMS7003;64830;46.910;6.354;2023-02-26T04:11:53;4.00;4.00;3.00
76101;PMS7003;64830;46.910;6.354;2023-02-26T04:14:21;7.00;4.75;2.50
76101;PMS7003;64830;46.910;6.354;2023-02-26T04:16:46;3.00;3.00;2.50
76101;PMS7003;64830;46.910;6.354;2023-02-26T04:19:12;4.50;4.50;3.25
76101;PMS7003;64830;46.910;6.354;2023-02-26T04:21:38;4.50;4.50;3.00
76101;PMS7003;64830;46.910;6.354;2023-02-26T04:24:03;4.00;4.00;4.00
76101;PMS7003;64830;46.910;6.354;2023-02-26T04:26:29;3.25;1.50;1.00
76101;PMS7003;64830;46.910;6.354;2023-02-26T04:28:54;4.00;4.00;3.75
76101;PMS7003;64830;46.910;6.354;2023-02-26T04:31:20;7.00;3.00;2.00
76101;PMS7003;64830;46.910;6.354;2023-02-26T04:33:45;3.25;2.75;1.50
76101;PMS7003;64830;46.910;6.354;2023-02-26T04:36:11;4.75;4.00;3.00
76101;PMS7003;64830;46.910;6.354;2023-02-26T04:38:36;6.25;6.25;3.50
76101;PMS7003;64830;46.910;6.354;2023-02-26T04:41:02;4.00;4.00;1.00
76101;PMS7003;64830;46.910;6.354;2023-02-26T04:43:27;5.50;3.00;1.00
76101;PMS7003;64830;46.910;6.354;2023-02-26T04:45:52;2.50;0.75;0.25
76101;PMS7003;64830;46.910;6.354;2023-02-26T04:48:18;3.00;3.00;1.00
76101;PMS7003;64830;46.910;6.354;2023-02-26T04:50:45;6.00;6.00;3.25
76101;PMS7003;64830;46.910;6.354;2023-02-26T04:53:11;3.50;3.50;3.00
76101;PMS7003;64830;46.910;6.354;2023-02-26T04:55:37;3.00;3.00;1.00
76101;PMS7003;64830;46.910;6.354;2023-02-26T04:58:03;3.75;3.00;3.00
76101;PMS7003;64830;46.910;6.354;2023-02-26T05:00:29;6.00;6.00;3.00
76101;PMS7003;64830;46.910;6.354;2023-02-26T05:02:54;5.00;4.00;3.00
76101;PMS7003;64830;46.910;6.354;2023-02-26T05:05:20;5.25;4.50;4.00
76101;PMS7003;64830;46.910;6.354;2023-02-26T05:07:45;4.00;4.00;4.00
76101;PMS7003;64830;46.910;6.354;2023-02-26T05:10:10;3.50;3.50;3.00
76101;PMS7003;64830;46.910;6.354;2023-02-26T05:12:36;4.50;4.50;4.00
76101;PMS7003;64830;46.910;6.354;2023-02-26T05:15:02;4.00;4.00;3.25
76101;PMS7003;64830;46.910;6.354;2023-02-26T05:17:29;3.25;2.50;2.50
76101;PMS7003;64830;46.910;6.354;2023-02-26T05:19:54;0.00;0.00;0.00
76101;PMS7003;64830;46.910;6.354;2023-02-26T05:22:19;3.50;3.50;3.00
76101;PMS7003;64830;46.910;6.354;2023-02-26T05:24:45;3.00;3.00;1.50
76101;PMS7003;64830;46.910;6.354;2023-02-26T05:27:10;5.25;3.00;2.00
76101;PMS7003;64830;46.910;6.354;2023-02-26T05:29:36;3.75;3.50;3.00
76101;PMS7003;64830;46.910;6.354;2023-02-26T05:32:02;4.00;4.00;3.00
76101;PMS7003;64830;46.910;6.354;2023-02-26T05:34:28;3.00;3.00;2.00
76101;PMS7003;64830;46.910;6.354;2023-02-26T05:36:53;7.00;4.00;3.75
76101;PMS7003;64830;46.910;6.354;2023-02-26T05:39:18;4.50;4.50;4.00
76101;PMS7003;64830;46.910;6.354;2023-02-26T05:41:44;4.25;3.75;3.50
76101;PMS7003;64830;46.910;6.354;2023-02-26T05:44:10;0.00;0.00;0.00
76101;PMS7003;64830;46.910;6.354;2023-02-26T05:46:36;3.00;2.00;2.00
76101;PMS7003;64830;46.910;6.354;2023-02-26T05:49:01;1.00;1.00;0.00
76101;PMS7003;64830;46.910;6.354;2023-02-26T05:51:27;5.25;3.75;3.25
76101;PMS7003;64830;46.910;6.354;2023-02-26T05:53:53;3.75;3.75;3.00
76101;PMS7003;64830;46.910;6.354;2023-02-26T05:56:18;4.00;2.50;1.00
76101;PMS7003;64830;46.910;6.354;2023-02-26T05:58:44;4.00;2.00;1.00
76101;PMS7003;64830;46.910;6.354;2023-02-26T06:01:09;3.50;2.00;1.00
76101;PMS7003;64830;46.910;6.354;2023-02-26T06:03:34;3.00;3.00;3.00
76101;PMS7003;64830;46.910;6.354;2023-02-26T06:06:00;3.25;1.00;1.00
76101;PMS7003;64830;46.910;6.354;2023-02-26T06:08:25;3.00;3.00;1.00
76101;PMS7003;64830;46.910;6.354;2023-02-26T06:10:51;2.00;2.00;1.00
76101;PMS7003;64830;46.910;6.354;2023-02-26T06:13:16;7.00;4.00;3.00
76101;PMS7003;64830;46.910;6.354;2023-02-26T06:15:42;3.25;1.50;1.00
76101;PMS7003;64830;46.910;6.354;2023-02-26T06:18:07;2.50;2.50;2.50
76101;PMS7003;64830;46.910;6.354;2023-02-26T06:20:33;4.00;4.00;3.00
76101;PMS7003;64830;46.910;6.354;2023-02-26T06:22:59;1.00;1.00;1.00
76101;PMS7003;64830;46.910;6.354;2023-02-26T06:25:24;1.50;1.50;1.50
76101;PMS7003;64830;46.910;6.354;2023-02-26T06:27:49;3.75;2.50;2.50
76101;PMS7003;64830;46.910;6.354;2023-02-26T06:30:15;1.50;1.50;1.50
76101;PMS7003;64830;46.910;6.354;2023-02-26T06:32:42;4.75;4.00;3.00
76101;PMS7003;64830;46.910;6.354;2023-02-26T06:35:08;3.00;3.00;3.00
76101;PMS7003;64830;46.910;6.354;2023-02-26T06:37:34;7.00;4.00;3.75
76101;PMS7003;64830;46.910;6.354;2023-02-26T06:39:59;3.00;3.00;3.00
76101;PMS7003;64830;46.910;6.354;2023-02-26T06:42:24;2.00;2.00;1.00
76101;PMS7003;64830;46.910;6.354;2023-02-26T06:44:50;3.00;3.00;3.00
76101;PMS7003;64830;46.910;6.354;2023-02-26T06:47:15;2.50;2.50;2.50
76101;PMS7003;64830;46.910;6.354;2023-02-26T06:49:40;1.50;1.50;1.00
76101;PMS7003;64830;46.910;6.354;2023-02-26T06:52:06;3.50;2.50;1.00
76101;PMS7003;64830;46.910;6.354;2023-02-26T06:54:31;3.00;3.00;3.00
76101;PMS7003;64830;46.910;6.354;2023-02-26T06:56:57;3.00;3.00;1.50
76101;PMS7003;64830;46.910;6.354;2023-02-26T06:59:22;3.00;3.00;1.00
76101;PMS7003;64830;46.910;6.354;2023-02-26T07:01:48;1.00;1.00;0.00
76101;PMS7003;64830;46.910;6.354;2023-02-26T07:04:14;4.00;3.00;3.00
76101;PMS7003;64830;46.910;6.354;2023-02-26T07:06:40;2.50;2.50;2.50
76101;PMS7003;64830;46.910;6.354;2023-02-26T07:09:05;1.50;1.50;1.00
76101;PMS7003;64830;46.910;6.354;2023-02-26T07:11:30;3.00;1.00;1.00
76101;PMS7003;64830;46.910;6.354;2023-02-26T07:13:56;3.00;1.00;1.00
76101;PMS7003;64830;46.910;6.354;2023-02-26T07:16:21;5.50;3.00;3.00
76101;PMS7003;64830;46.910;6.354;2023-02-26T07:18:47;5.00;5.00;3.75
76101;PMS7003;64830;46.910;6.354;2023-02-26T07:21:12;3.00;1.00;0.75
76101;PMS7003;64830;46.910;6.354;2023-02-26T07:23:37;1.00;1.00;1.00
76101;PMS7003;64830;46.910;6.354;2023-02-26T07:26:03;0.50;0.50;0.25
76101;PMS7003;64830;46.910;6.354;2023-02-26T07:28:28;3.00;3.00;1.00
76101;PMS7003;64830;46.910;6.354;2023-02-26T07:30:54;4.50;4.00;3.75
76101;PMS7003;64830;46.910;6.354;2023-02-26T07:33:20;4.00;3.25;1.50
76101;PMS7003;64830;46.910;6.354;2023-02-26T07:35:46;2.75;1.00;1.00
76101;PMS7003;64830;46.910;6.354;2023-02-26T07:38:11;4.50;3.00;3.00
76101;PMS7003;64830;46.910;6.354;2023-02-26T07:40:37;1.00;1.00;1.00
76101;PMS7003;64830;46.910;6.354;2023-02-26T07:43:02;3.00;0.75;0.00
76101;PMS7003;64830;46.910;6.354;2023-02-26T07:45:28;3.75;1.00;1.00
76101;PMS7003;64830;46.910;6.354;2023-02-26T07:47:53;3.50;3.00;2.00
76101;PMS7003;64830;46.910;6.354;2023-02-26T07:50:19;4.00;3.00;1.00
76101;PMS7003;64830;46.910;6.354;2023-02-26T07:52:45;0.00;0.00;0.00
76101;PMS7003;64830;46.910;6.354;2023-02-26T07:55:11;0.00;0.00;0.00
76101;PMS7003;64830;46.910;6.354;2023-02-26T07:57:37;0.75;0.00;0.00
76101;PMS7003;64830;46.910;6.354;2023-02-26T08:00:03;4.00;2.00;1.00
76101;PMS7003;64830;46.910;6.354;2023-02-26T08:02:29;4.00;4.00;3.00
76101;PMS7003;64830;46.910;6.354;2023-02-26T08:04:55;2.50;2.50;2.00
76101;PMS7003;64830;46.910;6.354;2023-02-26T08:07:21;3.50;1.50;1.50
76101;PMS7003;64830;46.910;6.354;2023-02-26T08:09:46;6.00;4.00;3.50
76101;PMS7003;64830;46.910;6.354;2023-02-26T08:12:12;3.00;3.00;2.50
76101;PMS7003;64830;46.910;6.354;2023-02-26T08:14:37;3.00;3.00;3.00
76101;PMS7003;64830;46.910;6.354;2023-02-26T08:17:05;3.25;2.50;2.00
76101;PMS7003;64830;46.910;6.354;2023-02-26T08:19:31;0.00;0.00;0.00
76101;PMS7003;64830;46.910;6.354;2023-02-26T08:21:57;3.00;3.00;1.00
76101;PMS7003;64830;46.910;6.354;2023-02-26T08:24:22;3.25;1.00;0.75
76101;PMS7003;64830;46.910;6.354;2023-02-26T08:26:48;5.00;3.00;1.50
76101;PMS7003;64830;46.910;6.354;2023-02-26T08:29:13;3.00;2.00;1.00
76101;PMS7003;64830;46.910;6.354;2023-02-26T08:31:39;2.00;1.00;1.00
76101;PMS7003;64830;46.910;6.354;2023-02-26T08:34:04;3.25;3.00;1.00
76101;PMS7003;64830;46.910;6.354;2023-02-26T08:36:30;0.00;0.00;0.00
76101;PMS7003;64830;46.910;6.354;2023-02-26T08:38:56;2.50;1.00;1.00
76101;PMS7003;64830;46.910;6.354;2023-02-26T08:41:22;3.00;3.00;3.00
76101;PMS7003;64830;46.910;6.354;2023-02-26T08:43:48;4.00;1.00;1.00
76101;PMS7003;64830;46.910;6.354;2023-02-26T08:46:13;2.00;2.00;1.50
76101;PMS7003;64830;46.910;6.354;2023-02-26T08:48:38;3.00;3.00;1.00
76101;PMS7003;64830;46.910;6.354;2023-02-26T08:51:04;4.50;4.50;4.00
76101;PMS7003;64830;46.910;6.354;2023-02-26T08:53:30;1.00;1.00;0.25
76101;PMS7003;64830;46.910;6.354;2023-02-26T08:55:55;1.00;1.00;1.00
76101;PMS7003;64830;46.910;6.354;2023-02-26T08:58:21;2.50;2.50;1.00
76101;PMS7003;64830;46.910;6.354;2023-02-26T09:00:46;0.25;0.25;0.00
76101;PMS7003;64830;46.910;6.354;2023-02-26T09:03:12;0.25;0.25;0.25
76101;PMS7003;64830;46.910;6.354;2023-02-26T09:05:37;1.50;1.00;1.00
76101;PMS7003;64830;46.910;6.354;2023-02-26T09:08:04;3.00;2.50;2.00
76101;PMS7003;64830;46.910;6.354;2023-02-26T09:10:30;3.00;0.00;0.00
76101;PMS7003;64830;46.910;6.354;2023-02-26T09:12:56;1.00;1.00;1.00
76101;PMS7003;64830;46.910;6.354;2023-02-26T09:15:21;0.75;0.75;0.00
76101;PMS7003;64830;46.910;6.354;2023-02-26T09:17:46;4.50;1.00;1.00
76101;PMS7003;64830;46.910;6.354;2023-02-26T09:20:12;0.25;0.25;0.25
76101;PMS7003;64830;46.910;6.354;2023-02-26T09:22:38;0.00;0.00;0.00
76101;PMS7003;64830;46.910;6.354;2023-02-26T09:25:04;2.50;1.00;1.00
76101;PMS7003;64830;46.910;6.354;2023-02-26T09:27:30;1.00;1.00;1.00
76101;PMS7003;64830;46.910;6.354;2023-02-26T09:29:56;4.50;3.00;2.00
76101;PMS7003;64830;46.910;6.354;2023-02-26T09:32:21;0.50;0.50;0.00
76101;PMS7003;64830;46.910;6.354;2023-02-26T09:34:47;0.00;0.00;0.00
76101;PMS7003;64830;46.910;6.354;2023-02-26T09:37:12;0.50;0.50;0.50
76101;PMS7003;64830;46.910;6.354;2023-02-26T09:39:38;1.00;1.00;1.00
76101;PMS7003;64830;46.910;6.354;2023-02-26T09:42:08;1.00;0.50;0.50
76101;PMS7003;64830;46.910;6.354;2023-02-26T09:44:36;1.00;0.00;0.00
76101;PMS7003;64830;46.910;6.354;2023-02-26T09:47:04;1.00;1.00;1.00
76101;PMS7003;64830;46.910;6.354;2023-02-26T09:52:24;0.25;0.25;0.00
76101;PMS7003;64830;46.910;6.354;2023-02-26T09:54:52;1.75;0.00;0.00
76101;PMS7003;64830;46.910;6.354;2023-02-26T09:57:26;2.00;0.75;0.50
76101;PMS7003;64830;46.910;6.354;2023-02-26T09:59:55;1.00;1.00;1.00
76101;PMS7003;64830;46.910;6.354;2023-02-26T10:02:30;3.00;1.50;1.50
76101;PMS7003;64830;46.910;6.354;2023-02-26T10:07:57;1.00;1.00;0.25
76101;PMS7003;64830;46.910;6.354;2023-02-26T10:13:28;1.00;1.00;1.00
76101;PMS7003;64830;46.910;6.354;2023-02-26T10:16:19;3.00;1.00;0.00
76101;PMS7003;64830;46.910;6.354;2023-02-26T10:19:29;0.00;0.00;0.00
76101;PMS7003;64830;46.910;6.354;2023-02-26T10:21:47;0.25;0.25;0.00
76101;PMS7003;64830;46.910;6.354;2023-02-26T10:24:27;3.00;1.00;1.00
76101;PMS7003;64830;46.910;6.354;2023-02-26T10:27:24;1.00;1.00;0.75
76101;PMS7003;64830;46.910;6.354;2023-02-26T10:30:02;1.00;1.00;1.00
76101;PMS7003;64830;46.910;6.354;2023-02-26T10:32:40;0.00;0.00;0.00
76101;PMS7003;64830;46.910;6.354;2023-02-26T10:35:16;0.25;0.00;0.00
76101;PMS7003;64830;46.910;6.354;2023-02-26T10:40:40;0.25;0.25;0.25
76101;PMS7003;64830;46.910;6.354;2023-02-26T10:43:18;2.50;2.50;0.75
76101;PMS7003;64830;46.910;6.354;2023-02-26T10:51:32;0.00;0.00;0.00
76101;PMS7003;64830;46.910;6.354;2023-02-26T10:54:14;1.00;0.00;0.00
76101;PMS7003;64830;46.910;6.354;2023-02-26T10:56:44;1.00;1.00;1.00
76101;PMS7003;64830;46.910;6.354;2023-02-26T10:59:09;1.50;0.50;0.50
76101;PMS7003;64830;46.910;6.354;2023-02-26T11:01:35;0.00;0.00;0.00
76101;PMS7003;64830;46.910;6.354;2023-02-26T11:04:02;0.00;0.00;0.00
76101;PMS7003;64830;46.910;6.354;2023-02-26T11:06:45;0.50;0.50;0.50
76101;PMS7003;64830;46.910;6.354;2023-02-26T11:09:24;0.00;0.00;0.00
76101;PMS7003;64830;46.910;6.354;2023-02-26T11:14:30;0.00;0.00;0.00
76101;PMS7003;64830;46.910;6.354;2023-02-26T11:16:58;1.00;0.00;0.00
76101;PMS7003;64830;46.910;6.354;2023-02-26T11:19:49;1.00;0.00;0.00
76101;PMS7003;64830;46.910;6.354;2023-02-26T11:22:20;0.00;0.00;0.00
76101;PMS7003;64830;46.910;6.354;2023-02-26T11:24:49;0.75;0.75;0.75
76101;PMS7003;64830;46.910;6.354;2023-02-26T11:27:20;1.00;1.00;1.00
76101;PMS7003;64830;46.910;6.354;2023-02-26T11:29:53;1.00;1.00;0.75
76101;PMS7003;64830;46.910;6.354;2023-02-26T11:32:28;1.00;0.00;0.00
76101;PMS7003;64830;46.910;6.354;2023-02-26T11:34:55;0.75;0.75;0.00
76101;PMS7003;64830;46.910;6.354;2023-02-26T11:37:27;0.00;0.00;0.00
76101;PMS7003;64830;46.910;6.354;2023-02-26T11:39:56;0.00;0.00;0.00
76101;PMS7003;64830;46.910;6.354;2023-02-26T11:42:24;5.00;0.75;0.75
76101;PMS7003;64830;46.910;6.354;2023-02-26T11:44:51;0.25;0.25;0.00
76101;PMS7003;64830;46.910;6.354;2023-02-26T11:47:22;1.00;1.00;0.50
76101;PMS7003;64830;46.910;6.354;2023-02-26T11:49:51;5.00;2.00;1.00
76101;PMS7003;64830;46.910;6.354;2023-02-26T11:52:26;2.50;2.50;1.00
76101;PMS7003;64830;46.910;6.354;2023-02-26T11:57:55;3.00;0.00;0.00
76101;PMS7003;64830;46.910;6.354;2023-02-26T12:03:03;0.50;0.25;0.25
76101;PMS7003;64830;46.910;6.354;2023-02-26T12:05:32;0.00;0.00;0.00
76101;PMS7003;64830;46.910;6.354;2023-02-26T12:07:58;1.00;0.00;0.00
76101;PMS7003;64830;46.910;6.354;2023-02-26T12:10:37;1.00;1.00;1.00
76101;PMS7003;64830;46.910;6.354;2023-02-26T12:13:17;1.00;1.00;1.00
76101;PMS7003;64830;46.910;6.354;2023-02-26T12:16:29;0.00;0.00;0.00
76101;PMS7003;64830;46.910;6.354;2023-02-26T12:19:06;1.00;1.00;1.00
76101;PMS7003;64830;46.910;6.354;2023-02-26T12:30:38;3.00;0.75;0.50
76101;PMS7003;64830;46.910;6.354;2023-02-26T12:33:19;0.00;0.00;0.00
76101;PMS7003;64830;46.910;6.354;2023-02-26T12:41:49;1.00;1.00;0.00
76101;PMS7003;64830;46.910;6.354;2023-02-26T12:55:16;0.00;0.00;0.00
76101;PMS7003;64830;46.910;6.354;2023-02-26T12:58:18;1.00;1.00;0.00
76101;PMS7003;64830;46.910;6.354;2023-02-26T13:09:29;1.50;0.00;0.00
76101;PMS7003;64830;46.910;6.354;2023-02-26T13:12:07;0.75;0.00;0.00
76101;PMS7003;64830;46.910;6.354;2023-02-26T13:19:46;1.00;1.00;0.00
76101;PMS7003;64830;46.910;6.354;2023-02-26T13:27:42;0.25;0.25;0.00
76101;PMS7003;64830;46.910;6.354;2023-02-26T13:32:52;0.75;0.75;0.00
76101;PMS7003;64830;46.910;6.354;2023-02-26T13:35:41;0.25;0.25;0.25
76101;PMS7003;64830;46.910;6.354;2023-02-26T13:38:20;0.00;0.00;0.00
76101;PMS7003;64830;46.910;6.354;2023-02-26T13:41:04;0.00;0.00;0.00
76101;PMS7003;64830;46.910;6.354;2023-02-26T13:43:49;1.00;1.00;0.25
76101;PMS7003;64830;46.910;6.354;2023-02-26T13:52:31;1.00;1.00;0.25
76101;PMS7003;64830;46.910;6.354;2023-02-26T13:54:56;1.00;1.00;1.00
76101;PMS7003;64830;46.910;6.354;2023-02-26T13:57:34;0.00;0.00;0.00
76101;PMS7003;64830;46.910;6.354;2023-02-26T14:00:27;0.25;0.25;0.25
76101;PMS7003;64830;46.910;6.354;2023-02-26T14:03:09;3.00;0.00;0.00
76101;PMS7003;64830;46.910;6.354;2023-02-26T14:10:58;0.00;0.00;0.00
76101;PMS7003;64830;46.910;6.354;2023-02-26T14:16:37;0.00;0.00;0.00
76101;PMS7003;64830;46.910;6.354;2023-02-26T14:19:13;1.00;1.00;0.50
76101;PMS7003;64830;46.910;6.354;2023-02-26T14:21:47;0.25;0.25;0.00
76101;PMS7003;64830;46.910;6.354;2023-02-26T14:27:37;0.00;0.00;0.00
76101;PMS7003;64830;46.910;6.354;2023-02-26T14:29:57;0.25;0.25;0.00
76101;PMS7003;64830;46.910;6.354;2023-02-26T14:32:32;1.25;1.25;0.75
76101;PMS7003;64830;46.910;6.354;2023-02-26T14:35:03;0.00;0.00;0.00
76101;PMS7003;64830;46.910;6.354;2023-02-26T14:37:33;0.00;0.00;0.00
76101;PMS7003;64830;46.910;6.354;2023-02-26T14:40:18;6.00;4.00;1.00
76101;PMS7003;64830;46.910;6.354;2023-02-26T14:47:58;0.75;0.75;0.00
76101;PMS7003;64830;46.910;6.354;2023-02-26T14:50:28;0.00;0.00;0.00
76101;PMS7003;64830;46.910;6.354;2023-02-26T14:59:10;3.00;0.75;0.50
76101;PMS7003;64830;46.910;6.354;2023-02-26T15:25:38;0.00;0.00;0.00
76101;PMS7003;64830;46.910;6.354;2023-02-26T15:28:09;2.00;0.00;0.00
76101;PMS7003;64830;46.910;6.354;2023-02-26T15:30:41;1.50;0.50;0.50
76101;PMS7003;64830;46.910;6.354;2023-02-26T15:33:12;1.00;1.00;1.00
76101;PMS7003;64830;46.910;6.354;2023-02-26T15:35:38;3.00;0.00;0.00
76101;PMS7003;64830;46.910;6.354;2023-02-26T15:38:03;1.00;1.00;0.00
76101;PMS7003;64830;46.910;6.354;2023-02-26T15:40:33;0.00;0.00;0.00
76101;PMS7003;64830;46.910;6.354;2023-02-26T15:43:01;0.00;0.00;0.00
76101;PMS7003;64830;46.910;6.354;2023-02-26T15:45:33;3.00;1.00;0.00
76101;PMS7003;64830;46.910;6.354;2023-02-26T15:48:05;1.00;1.00;0.75
76101;PMS7003;64830;46.910;6.354;2023-02-26T15:50:37;1.00;1.00;1.00
76101;PMS7003;64830;46.910;6.354;2023-02-26T15:53:06;0.00;0.00;0.00
76101;PMS7003;64830;46.910;6.354;2023-02-26T15:55:37;0.00;0.00;0.00
76101;PMS7003;64830;46.910;6.354;2023-02-26T15:58:10;0.00;0.00;0.00
76101;PMS7003;64830;46.910;6.354;2023-02-26T16:00:51;1.00;1.00;0.25
76101;PMS7003;64830;46.910;6.354;2023-02-26T16:03:24;0.75;0.75;0.00
76101;PMS7003;64830;46.910;6.354;2023-02-26T16:05:52;1.00;1.00;1.00
76101;PMS7003;64830;46.910;6.354;2023-02-26T16:08:18;1.00;1.00;0.75
76101;PMS7003;64830;46.910;6.354;2023-02-26T16:10:44;0.00;0.00;0.00
76101;PMS7003;64830;46.910;6.354;2023-02-26T16:13:12;0.00;0.00;0.00
76101;PMS7003;64830;46.910;6.354;2023-02-26T16:15:41;3.00;0.00;0.00
76101;PMS7003;64830;46.910;6.354;2023-02-26T16:18:09;1.00;0.25;0.25
76101;PMS7003;64830;46.910;6.354;2023-02-26T16:20:41;3.00;1.00;1.00
76101;PMS7003;64830;46.910;6.354;2023-02-26T16:23:14;1.00;0.00;0.00
76101;PMS7003;64830;46.910;6.354;2023-02-26T16:25:52;1.00;1.00;1.00
76101;PMS7003;64830;46.910;6.354;2023-02-26T16:30:48;4.00;2.00;1.00
76101;PMS7003;64830;46.910;6.354;2023-02-26T16:33:17;0.00;0.00;0.00
76101;PMS7003;64830;46.910;6.354;2023-02-26T16:35:46;1.00;0.00;0.00
76101;PMS7003;64830;46.910;6.354;2023-02-26T16:38:18;1.00;1.00;0.25
76101;PMS7003;64830;46.910;6.354;2023-02-26T16:40:56;0.00;0.00;0.00
76101;PMS7003;64830;46.910;6.354;2023-02-26T16:46:00;3.75;1.00;1.00
76101;PMS7003;64830;46.910;6.354;2023-02-26T16:48:30;1.00;1.00;1.00
76101;PMS7003;64830;46.910;6.354;2023-02-26T16:56:28;3.00;0.00;0.00
76101;PMS7003;64830;46.910;6.354;2023-02-26T16:59:03;1.00;1.00;1.00
76101;PMS7003;64830;46.910;6.354;2023-02-26T17:01:32;0.75;0.75;0.00
76101;PMS7003;64830;46.910;6.354;2023-02-26T17:04:02;2.00;1.00;0.50
76101;PMS7003;64830;46.910;6.354;2023-02-26T17:06:29;1.00;0.00;0.00
76101;PMS7003;64830;46.910;6.354;2023-02-26T17:09:01;0.00;0.00;0.00
76101;PMS7003;64830;46.910;6.354;2023-02-26T17:11:36;3.25;1.00;1.00
76101;PMS7003;64830;46.910;6.354;2023-02-26T17:16:43;0.00;0.00;0.00
76101;PMS7003;64830;46.910;6.354;2023-02-26T17:19:10;0.50;0.00;0.00
76101;PMS7003;64830;46.910;6.354;2023-02-26T17:21:36;1.00;1.00;0.75
76101;PMS7003;64830;46.910;6.354;2023-02-26T17:24:08;0.00;0.00;0.00
76101;PMS7003;64830;46.910;6.354;2023-02-26T17:26:39;0.75;0.75;0.00
76101;PMS7003;64830;46.910;6.354;2023-02-26T17:29:04;3.00;0.75;0.75
76101;PMS7003;64830;46.910;6.354;2023-02-26T17:31:30;1.00;1.00;0.00
76101;PMS7003;64830;46.910;6.354;2023-02-26T17:33:55;1.00;1.00;1.00
76101;PMS7003;64830;46.910;6.354;2023-02-26T17:36:21;2.50;2.50;1.00
76101;PMS7003;64830;46.910;6.354;2023-02-26T17:38:46;3.00;1.00;1.00
76101;PMS7003;64830;46.910;6.354;2023-02-26T17:41:16;0.00;0.00;0.00
76101;PMS7003;64830;46.910;6.354;2023-02-26T17:43:42;3.00;1.00;0.75
76101;PMS7003;64830;46.910;6.354;2023-02-26T17:46:08;1.00;1.00;1.00
76101;PMS7003;64830;46.910;6.354;2023-02-26T17:48:36;2.50;1.50;1.50
76101;PMS7003;64830;46.910;6.354;2023-02-26T17:51:02;1.00;1.00;1.00
76101;PMS7003;64830;46.910;6.354;2023-02-26T17:53:28;0.25;0.00;0.00
76101;PMS7003;64830;46.910;6.354;2023-02-26T17:56:06;1.00;1.00;1.00